createdAt,value
2019-01-17T00:00:32.419Z,13.00
2019-01-17T00:03:11.334Z,12.93
2019-01-17T00:05:47.422Z,12.13
2019-01-17T00:08:26.353Z,11.80
2019-01-17T00:10:57.404Z,12.50
2019-01-17T00:13:27.506Z,12.17
2019-01-17T00:15:57.697Z,11.73
2019-01-17T00:18:27.849Z,11.70
2019-01-17T00:21:01.639Z,11.53
2019-01-17T00:23:40.643Z,18.47
2019-01-17T00:26:19.510Z,19.63
2019-01-17T00:28:52.359Z,15.77
2019-01-17T00:31:37.324Z,13.60
2019-01-17T00:34:07.737Z,12.60
2019-01-17T00:36:40.481Z,12.23
2019-01-17T00:39:22.846Z,13.07
2019-01-17T00:41:53.049Z,12.33
2019-01-17T00:44:25.750Z,12.77
2019-01-17T00:46:56.413Z,12.70
2019-01-17T00:49:29.428Z,12.77
2019-01-17T00:52:08.784Z,12.33
2019-01-17T00:54:48.219Z,13.43
2019-01-17T00:57:30.206Z,12.47
2019-01-17T01:00:12.324Z,13.07
2019-01-17T01:02:57.761Z,12.00
2019-01-17T01:05:27.925Z,11.57
2019-01-17T01:08:10.297Z,11.73
2019-01-17T01:10:55.325Z,12.10
2019-01-17T01:13:25.467Z,13.30
2019-01-17T01:16:06.915Z,12.03
2019-01-17T01:18:43.142Z,11.67
2019-01-17T01:21:16.223Z,11.80
2019-01-17T01:24:02.379Z,12.17
2019-01-17T01:26:41.203Z,12.10
2019-01-17T01:29:19.988Z,12.07
2019-01-17T01:31:52.885Z,11.80
2019-01-17T01:34:35.246Z,11.50
2019-01-17T01:37:14.765Z,12.07
2019-01-17T01:39:44.957Z,12.07
2019-01-17T01:42:25.134Z,11.70
2019-01-17T01:45:04.590Z,11.73
2019-01-17T01:47:37.450Z,12.17
2019-01-17T01:50:08.386Z,11.73
2019-01-17T01:52:44.257Z,11.60
2019-01-17T01:55:12.842Z,12.10
2019-01-17T01:57:41.297Z,12.87
2019-01-17T02:00:11.819Z,12.70
2019-01-17T02:02:40.272Z,13.33
2019-01-17T02:05:08.950Z,12.90
2019-01-17T02:07:37.661Z,12.13
2019-01-17T02:10:09.268Z,13.37
2019-01-17T02:12:37.784Z,12.33
2019-01-17T02:15:07.321Z,13.30
2019-01-17T02:17:35.919Z,19.20
2019-01-17T02:20:07.184Z,12.87
2019-01-17T02:22:35.734Z,11.73
2019-01-17T02:25:08.580Z,12.33
2019-01-17T02:27:37.099Z,12.50
2019-01-17T02:30:09.020Z,12.77
2019-01-17T02:32:37.534Z,11.50
2019-01-17T02:35:07.227Z,12.20
2019-01-17T02:37:35.787Z,12.03
2019-01-17T02:40:07.369Z,12.40
2019-01-17T02:42:35.960Z,11.40
2019-01-17T02:45:07.259Z,12.13
2019-01-17T02:47:35.847Z,11.33
2019-01-17T02:50:06.439Z,11.27
2019-01-17T02:52:34.947Z,11.43
2019-01-17T02:55:04.235Z,12.07
2019-01-17T02:57:32.686Z,11.80
2019-01-17T03:00:01.270Z,11.87
2019-01-17T03:02:29.857Z,11.40
2019-01-17T03:04:58.315Z,11.60
2019-01-17T03:07:26.795Z,11.97
2019-01-17T03:09:55.389Z,12.23
2019-01-17T03:12:23.833Z,12.07
2019-01-17T03:14:52.389Z,11.87
2019-01-17T03:17:20.977Z,11.93
2019-01-17T03:19:49.434Z,11.17
2019-01-17T03:22:17.914Z,10.93
2019-01-17T03:24:46.367Z,11.30
2019-01-17T03:27:14.821Z,10.97
2019-01-17T03:29:43.302Z,10.50
2019-01-17T03:32:11.822Z,11.17
2019-01-17T03:34:40.337Z,11.40
2019-01-17T03:37:09.027Z,11.73
2019-01-17T03:39:37.546Z,11.00
2019-01-17T03:42:06.118Z,12.30
2019-01-17T03:44:34.748Z,11.17
2019-01-17T03:47:03.695Z,11.97
2019-01-17T03:49:32.219Z,11.83
2019-01-17T03:52:00.728Z,12.03
2019-01-17T03:54:29.324Z,11.53
2019-01-17T03:56:57.843Z,11.13
2019-01-17T03:59:26.427Z,11.33
2019-01-17T04:01:55.013Z,13.40
2019-01-17T04:04:23.534Z,12.67
2019-01-17T04:06:52.010Z,12.03
2019-01-17T04:09:20.535Z,11.50
2019-01-17T04:11:48.980Z,11.77
2019-01-17T04:14:17.521Z,14.63
2019-01-17T04:16:46.105Z,15.57
2019-01-17T04:19:14.553Z,16.30
2019-01-17T04:21:43.030Z,15.93
2019-01-17T04:24:11.553Z,13.70
2019-01-17T04:26:40.001Z,12.13
2019-01-17T04:29:08.489Z,16.70
2019-01-17T04:31:37.069Z,16.10
2019-01-17T04:34:05.597Z,14.20
2019-01-17T04:36:34.141Z,12.50
2019-01-17T04:39:02.665Z,12.30
2019-01-17T04:41:31.186Z,12.73
2019-01-17T04:43:59.659Z,10.57
2019-01-17T04:46:28.181Z,10.47
2019-01-17T04:48:56.918Z,10.73
2019-01-17T04:51:25.533Z,10.20
2019-01-17T04:53:53.989Z,10.17
2019-01-17T04:56:22.505Z,11.27
2019-01-17T04:58:50.993Z,9.50
2019-01-17T05:01:19.605Z,9.33
2019-01-17T05:03:48.185Z,11.30
2019-01-17T05:06:16.734Z,9.70
2019-01-17T05:08:45.249Z,10.47
2019-01-17T05:11:14.268Z,9.93
2019-01-17T05:13:42.873Z,9.63
2019-01-17T05:16:11.394Z,10.10
2019-01-17T05:18:39.906Z,9.50
2019-01-17T05:21:08.453Z,10.53
2019-01-17T05:23:36.970Z,10.60
2019-01-17T05:26:05.557Z,10.63
2019-01-17T05:28:34.058Z,9.73
2019-01-17T05:31:02.572Z,9.50
2019-01-17T05:33:31.085Z,9.40
2019-01-17T05:35:59.628Z,9.40
2019-01-17T05:38:28.142Z,9.97
2019-01-17T05:40:57.259Z,9.50
2019-01-17T05:43:25.801Z,9.47
2019-01-17T05:45:54.259Z,9.83
2019-01-17T05:48:22.768Z,9.13
2019-01-17T05:50:51.757Z,9.83
2019-01-17T05:53:20.214Z,10.10
2019-01-17T05:55:48.801Z,9.90
2019-01-17T05:58:17.285Z,10.37
2019-01-17T06:00:45.809Z,9.80
2019-01-17T06:03:14.257Z,9.67
2019-01-17T06:05:42.732Z,8.97
2019-01-17T06:08:11.325Z,9.47
2019-01-17T06:10:39.911Z,9.73
2019-01-17T06:13:09.002Z,9.97
2019-01-17T06:15:38.114Z,10.27
2019-01-17T06:18:06.564Z,8.70
2019-01-17T06:20:35.044Z,9.10
2019-01-17T06:23:03.493Z,9.43
2019-01-17T06:25:32.079Z,8.63
2019-01-17T06:28:00.566Z,9.17
2019-01-17T06:30:29.009Z,9.10
2019-01-17T06:32:57.525Z,8.63
2019-01-17T06:35:26.070Z,8.70
2019-01-17T06:37:54.593Z,9.10
2019-01-17T06:40:25.962Z,9.80
2019-01-17T06:42:54.480Z,9.53
2019-01-17T06:45:22.929Z,11.30
2019-01-17T06:47:52.448Z,12.83
2019-01-17T06:50:20.965Z,11.50
2019-01-17T06:52:49.676Z,11.80
2019-01-17T06:55:18.233Z,13.07
2019-01-17T06:57:46.819Z,10.67
2019-01-17T07:00:17.221Z,11.10
2019-01-17T07:02:45.836Z,10.17
2019-01-17T07:05:15.221Z,10.67
2019-01-17T07:07:43.813Z,10.87
2019-01-17T07:10:14.830Z,11.10
2019-01-17T07:12:43.345Z,11.57
2019-01-17T07:15:12.204Z,11.53
2019-01-17T07:17:40.745Z,11.60
2019-01-17T07:20:12.304Z,12.03
2019-01-17T07:22:40.893Z,12.23
2019-01-17T07:25:10.728Z,12.43
2019-01-17T07:27:39.326Z,11.90
2019-01-17T07:30:22.219Z,12.03
2019-01-17T07:32:50.815Z,11.37
2019-01-17T07:35:19.406Z,11.73
2019-01-17T07:37:47.969Z,11.43
2019-01-17T07:40:16.560Z,10.37
2019-01-17T07:42:45.083Z,11.60
2019-01-17T07:45:19.753Z,11.60
2019-01-17T07:47:48.214Z,11.17
2019-01-17T07:50:16.800Z,10.90
2019-01-17T07:52:45.516Z,11.87
2019-01-17T07:55:14.118Z,11.70
2019-01-17T07:57:42.710Z,11.73
2019-01-17T08:00:14.397Z,11.27
2019-01-17T08:02:42.985Z,11.50
2019-01-17T08:05:11.584Z,11.40
2019-01-17T08:07:40.273Z,11.93
2019-01-17T08:10:14.563Z,11.67
2019-01-17T08:12:43.252Z,10.70
2019-01-17T08:15:13.769Z,11.10
2019-01-17T08:17:42.354Z,11.40
2019-01-17T08:20:13.913Z,10.70
2019-01-17T08:22:42.465Z,10.97
2019-01-17T08:25:12.253Z,10.47
2019-01-17T08:27:40.946Z,10.93
2019-01-17T08:30:12.441Z,10.13
2019-01-17T08:32:40.887Z,10.23
2019-01-17T08:35:10.775Z,11.37
2019-01-17T08:37:39.336Z,11.40
2019-01-17T08:40:20.405Z,10.40
2019-01-17T08:42:49.182Z,10.90
2019-01-17T08:45:17.773Z,10.53
2019-01-17T08:47:46.301Z,11.07
2019-01-17T08:50:16.324Z,11.57
2019-01-17T08:52:44.913Z,10.90
2019-01-17T08:55:13.505Z,11.33
2019-01-17T08:57:42.041Z,9.73
2019-01-17T09:00:16.121Z,10.63
2019-01-17T09:02:44.634Z,10.40
2019-01-17T09:05:13.265Z,10.10
2019-01-17T09:07:41.857Z,10.47
2019-01-17T09:10:13.725Z,10.53
2019-01-17T09:12:42.265Z,10.40
2019-01-17T09:15:13.565Z,10.00
2019-01-17T09:17:42.260Z,10.63
2019-01-17T09:20:13.449Z,10.57
2019-01-17T09:22:42.138Z,9.40
2019-01-17T09:25:14.821Z,9.57
2019-01-17T09:27:43.459Z,9.20
2019-01-17T09:30:20.443Z,9.13
2019-01-17T09:32:49.168Z,9.50
2019-01-17T09:35:18.462Z,9.13
2019-01-17T09:37:47.060Z,9.23
2019-01-17T09:40:17.952Z,9.57
2019-01-17T09:42:46.543Z,9.37
2019-01-17T09:45:15.134Z,9.63
2019-01-17T09:47:44.058Z,9.40
2019-01-17T09:50:21.032Z,9.93
2019-01-17T09:52:50.034Z,9.87
2019-01-17T09:55:19.035Z,10.63
2019-01-17T09:57:47.684Z,9.70
2019-01-17T10:00:19.222Z,10.40
2019-01-17T10:02:47.922Z,9.70
2019-01-17T10:05:16.422Z,9.43
2019-01-17T10:07:45.138Z,10.30
2019-01-17T10:10:15.972Z,9.03
2019-01-17T10:12:44.629Z,9.30
2019-01-17T10:15:28.820Z,9.03
2019-01-17T10:18:00.357Z,8.27
2019-01-17T10:20:48.550Z,8.50
2019-01-17T10:23:22.692Z,8.40
2019-01-17T10:25:57.113Z,8.27
2019-01-17T10:28:59.993Z,8.50
2019-01-17T10:31:43.331Z,8.37
2019-01-17T10:34:34.054Z,8.17
2019-01-17T10:37:08.349Z,7.53
2019-01-17T10:39:45.806Z,8.50
2019-01-17T10:42:32.446Z,7.80
2019-01-17T10:45:15.710Z,7.73
2019-01-17T10:48:00.169Z,7.70
2019-01-17T10:50:31.854Z,9.83
2019-01-17T10:53:21.096Z,7.03
2019-01-17T10:56:01.642Z,8.60
2019-01-17T10:58:33.230Z,8.53
2019-01-17T11:01:25.965Z,7.40
2019-01-17T11:04:00.482Z,8.40
2019-01-17T11:06:50.067Z,7.43
2019-01-17T11:09:42.790Z,7.40
2019-01-17T11:12:32.528Z,7.97
2019-01-17T11:15:04.173Z,7.63
2019-01-17T11:17:35.697Z,7.30
2019-01-17T11:20:28.527Z,7.27
2019-01-17T11:23:02.795Z,7.97
2019-01-17T11:25:34.346Z,7.87
2019-01-17T11:28:20.940Z,8.10
2019-01-17T11:30:58.451Z,6.90
2019-01-17T11:33:32.702Z,7.17
2019-01-17T11:36:28.431Z,7.53
2019-01-17T11:39:08.290Z,7.60
2019-01-17T11:42:08.499Z,7.73
2019-01-17T11:45:07.389Z,6.90
2019-01-17T11:47:54.077Z,7.00
2019-01-17T11:50:43.018Z,6.70
2019-01-17T11:53:20.469Z,6.97
2019-01-17T11:56:00.722Z,7.10
2019-01-17T11:58:50.174Z,7.00
2019-01-17T12:01:32.205Z,7.60
2019-01-17T12:04:29.045Z,6.90
2019-01-17T12:06:58.038Z,7.27
2019-01-17T12:09:26.571Z,7.00
2019-01-17T12:11:55.190Z,6.70
2019-01-17T12:14:26.910Z,6.27
2019-01-17T12:16:55.362Z,6.97
2019-01-17T12:19:23.911Z,7.87
2019-01-17T12:21:52.504Z,7.43
2019-01-17T12:24:21.105Z,7.07
2019-01-17T12:26:49.673Z,6.63
2019-01-17T12:29:18.606Z,6.73
2019-01-17T12:31:47.121Z,6.57
2019-01-17T12:34:15.801Z,6.20
2019-01-17T12:36:44.562Z,6.53
2019-01-17T12:39:14.626Z,6.70
2019-01-17T12:41:43.251Z,6.90
2019-01-17T12:44:11.912Z,7.07
2019-01-17T12:46:40.425Z,6.53
2019-01-17T12:49:09.050Z,6.53
2019-01-17T12:51:37.837Z,6.60
2019-01-17T12:54:06.544Z,6.40
2019-01-17T12:56:38.218Z,7.93
2019-01-17T12:59:06.767Z,8.97
2019-01-17T13:01:35.301Z,8.67
2019-01-17T13:04:04.289Z,7.00
2019-01-17T13:06:32.747Z,7.00
2019-01-17T13:09:01.298Z,7.57
2019-01-17T13:11:29.983Z,6.00
2019-01-17T13:13:58.567Z,6.70
2019-01-17T13:16:27.546Z,8.17
2019-01-17T13:18:56.242Z,6.57
2019-01-17T13:21:24.828Z,7.60
2019-01-17T13:23:53.417Z,6.70
2019-01-17T13:26:22.033Z,5.97
2019-01-17T13:28:50.585Z,6.40
2019-01-17T13:31:19.186Z,5.70
2019-01-17T13:33:47.733Z,6.07
2019-01-17T13:36:16.203Z,6.20
2019-01-17T13:38:44.875Z,5.73
2019-01-17T13:41:13.557Z,5.77
2019-01-17T13:43:42.081Z,5.20
2019-01-17T13:46:10.741Z,5.10
2019-01-17T13:48:39.454Z,5.20
2019-01-17T13:51:08.038Z,5.07
2019-01-17T13:53:36.626Z,5.20
2019-01-17T13:56:05.294Z,5.20
2019-01-17T13:58:33.834Z,6.20
2019-01-17T14:01:02.506Z,5.60
2019-01-17T14:03:31.113Z,5.83
2019-01-17T14:05:59.565Z,6.43
2019-01-17T14:08:28.011Z,6.03
2019-01-17T14:10:56.713Z,5.70
2019-01-17T14:13:25.307Z,5.60
2019-01-17T14:15:55.480Z,6.43
2019-01-17T14:18:27.878Z,7.43
2019-01-17T14:20:55.746Z,7.47
2019-01-17T14:23:24.198Z,9.03
2019-01-17T14:25:52.786Z,6.87
2019-01-17T14:28:21.361Z,6.87
2019-01-17T14:30:50.098Z,5.67
2019-01-17T14:33:18.620Z,5.13
2019-01-17T14:35:47.133Z,5.23
2019-01-17T14:38:15.633Z,4.63
2019-01-17T14:40:44.121Z,4.83
2019-01-17T14:43:12.717Z,5.00
2019-01-17T14:45:41.545Z,5.53
2019-01-17T14:48:10.706Z,5.80
2019-01-17T14:50:39.270Z,6.70
2019-01-17T14:53:07.859Z,6.73
2019-01-17T14:55:36.751Z,7.20
2019-01-17T14:58:05.337Z,6.60
2019-01-17T15:00:34.214Z,6.60
2019-01-17T15:03:03.001Z,6.40
2019-01-17T15:05:31.621Z,6.63
2019-01-17T15:08:00.204Z,6.57
2019-01-17T15:10:34.412Z,6.50
2019-01-17T15:13:03.102Z,6.87
2019-01-17T15:15:31.668Z,6.50
2019-01-17T15:18:00.384Z,6.57
2019-01-17T15:20:28.901Z,7.27
2019-01-17T15:22:57.421Z,9.40
2019-01-17T15:25:25.980Z,10.03
2019-01-17T15:27:54.437Z,11.93
2019-01-17T15:30:27.728Z,11.23
2019-01-17T15:32:56.349Z,11.53
2019-01-17T15:35:27.616Z,12.23
2019-01-17T15:37:56.237Z,15.30
2019-01-17T15:40:27.292Z,14.43
2019-01-17T15:42:58.840Z,16.70
2019-01-17T15:45:27.386Z,19.97
2019-01-17T15:47:55.935Z,29.37
2019-01-17T15:50:24.638Z,30.10
2019-01-17T15:52:53.337Z,26.93
2019-01-17T15:55:21.887Z,71.40
2019-01-17T15:57:50.475Z,35.47
2019-01-17T16:00:24.768Z,19.67
2019-01-17T16:02:53.315Z,18.93
2019-01-17T16:05:22.273Z,20.00
2019-01-17T16:07:51.022Z,25.43
2019-01-17T16:10:19.650Z,36.67
2019-01-17T16:12:48.220Z,49.13
2019-01-17T16:15:25.060Z,27.80
2019-01-17T16:17:53.781Z,28.03
2019-01-17T16:20:22.405Z,29.80
2019-01-17T16:22:51.221Z,32.33
2019-01-17T16:25:19.760Z,43.10
2019-01-17T16:27:52.968Z,36.63
2019-01-17T16:30:26.401Z,23.70
2019-01-17T16:32:55.803Z,19.13
2019-01-17T16:35:24.728Z,23.43
2019-01-17T16:37:53.449Z,17.93
2019-01-17T16:40:21.978Z,18.03
2019-01-17T16:42:50.575Z,13.80
2019-01-17T16:45:23.778Z,14.03
2019-01-17T16:47:52.446Z,14.70
2019-01-17T16:50:23.239Z,15.80
2019-01-17T16:52:51.940Z,14.43
2019-01-17T16:55:20.629Z,12.80
2019-01-17T16:57:49.530Z,13.33
2019-01-17T17:00:30.080Z,11.50
2019-01-17T17:02:58.609Z,12.20
2019-01-17T17:05:27.198Z,11.77
2019-01-17T17:07:56.240Z,15.13
2019-01-17T17:10:24.833Z,14.83
2019-01-17T17:12:53.282Z,14.10
2019-01-17T17:15:21.845Z,17.00
2019-01-17T17:17:50.304Z,20.80
2019-01-17T17:20:24.115Z,27.87
2019-01-17T17:22:52.729Z,23.87
2019-01-17T17:25:21.323Z,23.53
2019-01-17T17:27:55.543Z,33.67
2019-01-17T17:30:25.909Z,25.83
2019-01-17T17:32:54.509Z,30.47
2019-01-17T17:35:23.025Z,21.17
2019-01-17T17:37:51.590Z,31.20
2019-01-17T17:40:22.649Z,26.93
2019-01-17T17:42:51.259Z,24.90
2019-01-17T17:45:19.945Z,26.60
2019-01-17T17:47:48.609Z,24.83
2019-01-17T17:50:18.965Z,26.47
2019-01-17T17:52:47.590Z,19.70
2019-01-17T17:55:17.373Z,22.43
2019-01-17T17:57:45.982Z,15.13
2019-01-17T18:00:25.008Z,16.43
2019-01-17T18:02:54.268Z,13.97
2019-01-17T18:05:22.862Z,14.10
2019-01-17T18:07:51.533Z,15.07
2019-01-17T18:10:20.249Z,14.30
2019-01-17T18:12:48.714Z,13.30
2019-01-17T18:15:19.362Z,13.23
2019-01-17T18:17:48.151Z,11.27
2019-01-17T18:20:17.536Z,12.07
2019-01-17T18:22:46.114Z,10.93
2019-01-17T18:25:14.709Z,11.43
2019-01-17T18:27:43.239Z,13.33
2019-01-17T18:30:17.053Z,11.63
2019-01-17T18:32:45.654Z,11.73
2019-01-17T18:35:14.905Z,12.77
2019-01-17T18:37:43.755Z,12.50
2019-01-17T18:40:14.699Z,10.70
2019-01-17T18:42:43.287Z,11.63
2019-01-17T18:45:14.772Z,11.30
2019-01-17T18:47:43.297Z,11.20
2019-01-17T18:50:14.657Z,11.23
2019-01-17T18:52:43.278Z,12.13
2019-01-17T18:55:11.821Z,12.90
2019-01-17T18:57:40.348Z,12.57
2019-01-17T19:00:19.602Z,16.10
2019-01-17T19:02:48.293Z,12.33
2019-01-17T19:05:16.984Z,12.13
2019-01-17T19:07:45.634Z,12.40
2019-01-17T19:10:15.528Z,11.97
2019-01-17T19:12:44.061Z,11.27
2019-01-17T19:15:17.996Z,12.00
2019-01-17T19:17:46.588Z,13.00
2019-01-17T19:20:17.049Z,15.07
2019-01-17T19:22:45.672Z,13.67
2019-01-17T19:25:14.672Z,11.83
2019-01-17T19:27:43.258Z,12.47
2019-01-17T19:30:17.500Z,13.43
2019-01-17T19:32:46.102Z,12.53
2019-01-17T19:35:14.750Z,12.97
2019-01-17T19:37:43.662Z,17.53
2019-01-17T19:40:16.844Z,20.90
2019-01-17T19:42:45.446Z,20.97
2019-01-17T19:45:15.577Z,15.43
2019-01-17T19:47:44.273Z,14.77
2019-01-17T19:50:21.566Z,15.07
2019-01-17T19:52:50.091Z,12.37
2019-01-17T19:55:18.783Z,11.93
2019-01-17T19:57:47.384Z,11.67
2019-01-17T20:00:18.379Z,10.67
2019-01-17T20:02:47.149Z,9.00
2019-01-17T20:05:20.619Z,8.40
2019-01-17T20:07:49.415Z,8.47
2019-01-17T20:10:29.410Z,7.43
2019-01-17T20:12:58.130Z,7.47
2019-01-17T20:15:26.797Z,8.47
2019-01-17T20:17:55.727Z,9.07
2019-01-17T20:20:24.345Z,8.90
2019-01-17T20:22:53.322Z,10.20
2019-01-17T20:25:21.953Z,8.53
2019-01-17T20:27:51.272Z,8.23
2019-01-17T20:30:31.503Z,8.13
2019-01-17T20:33:01.491Z,7.10
2019-01-17T20:35:30.611Z,7.53
2019-01-17T20:37:59.354Z,8.20
2019-01-17T20:40:28.016Z,8.30
2019-01-17T20:42:56.626Z,9.67
2019-01-17T20:45:25.308Z,8.40
2019-01-17T20:47:54.003Z,7.83
2019-01-17T20:50:25.341Z,8.60
2019-01-17T20:52:53.982Z,9.80
2019-01-17T20:55:22.650Z,9.40
2019-01-17T20:57:51.266Z,10.50
2019-01-17T21:00:23.191Z,11.23
2019-01-17T21:02:51.874Z,11.33
2019-01-17T21:05:20.837Z,11.03
2019-01-17T21:07:49.395Z,10.67
2019-01-17T21:10:18.555Z,11.27
2019-01-17T21:12:47.237Z,11.23
2019-01-17T21:15:16.031Z,11.80
2019-01-17T21:17:44.620Z,11.60
2019-01-17T21:20:14.218Z,11.80
2019-01-17T21:22:42.767Z,12.03
2019-01-17T21:25:19.153Z,11.53
2019-01-17T21:27:47.696Z,10.23
2019-01-17T21:30:21.794Z,9.67
2019-01-17T21:32:50.305Z,8.40
2019-01-17T21:35:19.012Z,9.17
2019-01-17T21:37:47.652Z,8.80
2019-01-17T21:40:18.243Z,8.10
2019-01-17T21:42:46.745Z,7.97
2019-01-17T21:45:16.847Z,7.73
2019-01-17T21:47:45.304Z,8.00
2019-01-17T21:50:19.615Z,8.60
2019-01-17T21:52:48.270Z,8.03
2019-01-17T21:55:16.880Z,8.53
2019-01-17T21:57:45.405Z,7.90
2019-01-17T22:00:19.917Z,7.63
2019-01-17T22:02:48.521Z,6.43
2019-01-17T22:05:17.350Z,4.20
2019-01-17T22:07:46.031Z,2.30
2019-01-17T22:10:17.341Z,1.60
2019-01-17T22:12:46.136Z,1.80
2019-01-17T22:15:20.958Z,1.40
2019-01-17T22:17:49.558Z,1.60
2019-01-17T22:20:18.533Z,1.63
2019-01-17T22:22:47.625Z,1.80
2019-01-17T22:25:18.005Z,2.07
2019-01-17T22:27:47.929Z,1.90
2019-01-17T22:30:27.994Z,2.73
2019-01-17T22:32:56.619Z,4.03
2019-01-17T22:35:25.199Z,3.70
2019-01-17T22:37:53.709Z,3.97
2019-01-17T22:40:22.324Z,6.20
2019-01-17T22:42:50.845Z,5.80
2019-01-17T22:45:27.554Z,5.33
2019-01-17T22:47:56.000Z,4.90
2019-01-17T22:50:24.510Z,6.03
2019-01-17T22:52:53.066Z,6.23
2019-01-17T22:55:21.851Z,5.83
2019-01-17T22:57:50.325Z,5.87
2019-01-17T23:00:26.320Z,6.07
2019-01-17T23:02:54.845Z,7.33
2019-01-17T23:05:23.289Z,5.83
2019-01-17T23:07:51.764Z,6.30
2019-01-17T23:10:20.277Z,5.23
2019-01-17T23:12:48.721Z,6.07
2019-01-17T23:15:17.268Z,6.93
2019-01-17T23:17:45.784Z,6.90
2019-01-17T23:20:14.369Z,6.07
2019-01-17T23:22:42.846Z,5.63
2019-01-17T23:25:12.364Z,6.67
2019-01-17T23:27:40.818Z,6.83
2019-01-17T23:30:12.390Z,8.00
2019-01-17T23:32:40.980Z,6.30
2019-01-17T23:35:09.558Z,5.87
2019-01-17T23:37:38.105Z,6.40
2019-01-17T23:40:09.564Z,5.73
2019-01-17T23:42:38.013Z,6.50
2019-01-17T23:45:08.526Z,6.20
2019-01-17T23:47:36.976Z,8.70
2019-01-17T23:50:08.368Z,7.93
2019-01-17T23:52:36.989Z,6.77
2019-01-17T23:55:06.680Z,6.80
2019-01-17T23:57:35.909Z,5.60
